sensor_id;sensor_type;location;lat;lon;timestamp;P1;durP1;ratioP1;P2;durP2;ratioP2
54145;SDS011;65909;49.422;7.738;2023-03-01T00:00:14;14.98;;;9.25;;
54145;SDS011;65909;49.422;7.738;2023-03-01T00:02:39;16.77;;;9.07;;
54145;SDS011;65909;49.422;7.738;2023-03-01T00:05:05;20.95;;;10.27;;
54145;SDS011;65909;49.422;7.738;2023-03-01T00:07:32;16.20;;;8.48;;
54145;SDS011;65909;49.422;7.738;2023-03-01T00:09:57;16.52;;;9.60;;
54145;SDS011;65909;49.422;7.738;2023-03-01T00:12:23;16.00;;;9.07;;
54145;SDS011;65909;49.422;7.738;2023-03-01T00:14:48;15.30;;;8.05;;
54145;SDS011;65909;49.422;7.738;2023-03-01T00:17:13;15.25;;;8.35;;
54145;SDS011;65909;49.422;7.738;2023-03-01T00:19:39;17.40;;;9.15;;
54145;SDS011;65909;49.422;7.738;2023-03-01T00:22:04;16.00;;;8.85;;
54145;SDS011;65909;49.422;7.738;2023-03-01T00:24:30;17.58;;;9.25;;
54145;SDS011;65909;49.422;7.738;2023-03-01T00:26:55;15.70;;;8.25;;
54145;SDS011;65909;49.422;7.738;2023-03-01T00:29:21;15.48;;;9.35;;
54145;SDS011;65909;49.422;7.738;2023-03-01T00:31:47;18.02;;;9.50;;
54145;SDS011;65909;49.422;7.738;2023-03-01T00:34:13;18.48;;;8.88;;
54145;SDS011;65909;49.422;7.738;2023-03-01T00:36:38;14.90;;;8.85;;
54145;SDS011;65909;49.422;7.738;2023-03-01T00:39:05;14.93;;;8.48;;
54145;SDS011;65909;49.422;7.738;2023-03-01T00:41:33;18.27;;;9.68;;
54145;SDS011;65909;49.422;7.738;2023-03-01T00:43:59;12.18;;;8.50;;
54145;SDS011;65909;49.422;7.738;2023-03-01T00:46:25;18.35;;;9.07;;
54145;SDS011;65909;49.422;7.738;2023-03-01T00:48:51;13.63;;;8.23;;
54145;SDS011;65909;49.422;7.738;2023-03-01T00:51:22;14.00;;;8.18;;
54145;SDS011;65909;49.422;7.738;2023-03-01T00:53:53;18.40;;;9.23;;
54145;SDS011;65909;49.422;7.738;2023-03-01T00:56:23;16.80;;;8.85;;
54145;SDS011;65909;49.422;7.738;2023-03-01T00:58:48;16.98;;;8.90;;
54145;SDS011;65909;49.422;7.738;2023-03-01T01:01:15;12.65;;;8.55;;
54145;SDS011;65909;49.422;7.738;2023-03-01T01:03:47;17.10;;;9.38;;
54145;SDS011;65909;49.422;7.738;2023-03-01T01:06:22;16.33;;;8.90;;
54145;SDS011;65909;49.422;7.738;2023-03-01T01:08:58;20.02;;;9.25;;
54145;SDS011;65909;49.422;7.738;2023-03-01T01:11:24;16.65;;;9.23;;
54145;SDS011;65909;49.422;7.738;2023-03-01T01:13:51;13.05;;;8.65;;
54145;SDS011;65909;49.422;7.738;2023-03-01T01:16:17;16.40;;;8.55;;
54145;SDS011;65909;49.422;7.738;2023-03-01T01:18:44;13.88;;;9.48;;
54145;SDS011;65909;49.422;7.738;2023-03-01T01:21:11;15.00;;;8.20;;
54145;SDS011;65909;49.422;7.738;2023-03-01T01:23:39;14.70;;;8.82;;
54145;SDS011;65909;49.422;7.738;2023-03-01T01:26:07;17.50;;;9.32;;
54145;SDS011;65909;49.422;7.738;2023-03-01T01:28:34;16.13;;;9.27;;
54145;SDS011;65909;49.422;7.738;2023-03-01T01:30:59;15.77;;;9.43;;
54145;SDS011;65909;49.422;7.738;2023-03-01T01:33:25;20.25;;;9.27;;
54145;SDS011;65909;49.422;7.738;2023-03-01T01:35:50;17.05;;;8.35;;
54145;SDS011;65909;49.422;7.738;2023-03-01T01:38:16;19.15;;;10.02;;
54145;SDS011;65909;49.422;7.738;2023-03-01T01:40:44;18.35;;;8.88;;
54145;SDS011;65909;49.422;7.738;2023-03-01T01:43:21;19.95;;;8.82;;
54145;SDS011;65909;49.422;7.738;2023-03-01T01:45:53;16.02;;;8.80;;
54145;SDS011;65909;49.422;7.738;2023-03-01T01:48:22;17.75;;;9.32;;
54145;SDS011;65909;49.422;7.738;2023-03-01T01:51:00;15.10;;;8.02;;
54145;SDS011;65909;49.422;7.738;2023-03-01T01:53:26;15.15;;;8.65;;
54145;SDS011;65909;49.422;7.738;2023-03-01T01:55:53;15.43;;;9.32;;
54145;SDS011;65909;49.422;7.738;2023-03-01T01:58:23;15.40;;;8.68;;
54145;SDS011;65909;49.422;7.738;2023-03-01T02:00:52;14.25;;;8.82;;
54145;SDS011;65909;49.422;7.738;2023-03-01T02:03:23;19.83;;;8.93;;
54145;SDS011;65909;49.422;7.738;2023-03-01T02:05:55;18.10;;;9.18;;
54145;SDS011;65909;49.422;7.738;2023-03-01T02:08:27;18.05;;;9.98;;
54145;SDS011;65909;49.422;7.738;2023-03-01T02:10:55;16.77;;;9.50;;
54145;SDS011;65909;49.422;7.738;2023-03-01T02:13:22;19.40;;;10.23;;
54145;SDS011;65909;49.422;7.738;2023-03-01T02:15:49;16.40;;;9.20;;
54145;SDS011;65909;49.422;7.738;2023-03-01T02:18:16;15.77;;;9.52;;
54145;SDS011;65909;49.422;7.738;2023-03-01T02:23:33;15.63;;;9.07;;
54145;SDS011;65909;49.422;7.738;2023-03-01T02:26:09;20.42;;;10.27;;
54145;SDS011;65909;49.422;7.738;2023-03-01T02:28:42;14.00;;;9.00;;
54145;SDS011;65909;49.422;7.738;2023-03-01T02:31:10;18.67;;;8.57;;
54145;SDS011;65909;49.422;7.738;2023-03-01T02:33:57;17.52;;;8.70;;
54145;SDS011;65909;49.422;7.738;2023-03-01T02:36:24;15.90;;;9.73;;
54145;SDS011;65909;49.422;7.738;2023-03-01T02:38:55;19.63;;;10.80;;
54145;SDS011;65909;49.422;7.738;2023-03-01T02:41:23;20.30;;;9.80;;
54145;SDS011;65909;49.422;7.738;2023-03-01T02:43:50;17.42;;;9.93;;
54145;SDS011;65909;49.422;7.738;2023-03-01T02:46:19;21.27;;;9.95;;
54145;SDS011;65909;49.422;7.738;2023-03-01T02:48:51;19.25;;;9.32;;
54145;SDS011;65909;49.422;7.738;2023-03-01T02:54:29;15.73;;;10.00;;
54145;SDS011;65909;49.422;7.738;2023-03-01T02:57:01;19.77;;;9.85;;
54145;SDS011;65909;49.422;7.738;2023-03-01T02:59:29;16.13;;;9.52;;
54145;SDS011;65909;49.422;7.738;2023-03-01T03:02:04;23.75;;;10.68;;
54145;SDS011;65909;49.422;7.738;2023-03-01T03:04:32;20.58;;;10.02;;
54145;SDS011;65909;49.422;7.738;2023-03-01T03:06:58;15.73;;;8.88;;
54145;SDS011;65909;49.422;7.738;2023-03-01T03:09:24;17.08;;;9.95;;
54145;SDS011;65909;49.422;7.738;2023-03-01T03:11:49;18.05;;;10.48;;
54145;SDS011;65909;49.422;7.738;2023-03-01T03:14:15;16.63;;;9.52;;
54145;SDS011;65909;49.422;7.738;2023-03-01T03:16:42;27.20;;;10.52;;
54145;SDS011;65909;49.422;7.738;2023-03-01T03:19:09;20.48;;;10.27;;
54145;SDS011;65909;49.422;7.738;2023-03-01T03:21:36;18.15;;;10.65;;
54145;SDS011;65909;49.422;7.738;2023-03-01T03:24:01;16.85;;;9.05;;
54145;SDS011;65909;49.422;7.738;2023-03-01T03:26:27;16.48;;;9.20;;
54145;SDS011;65909;49.422;7.738;2023-03-01T03:28:53;17.15;;;9.60;;
54145;SDS011;65909;49.422;7.738;2023-03-01T03:31:18;18.75;;;11.18;;
54145;SDS011;65909;49.422;7.738;2023-03-01T03:33:44;22.65;;;10.82;;
54145;SDS011;65909;49.422;7.738;2023-03-01T03:36:09;15.45;;;9.65;;
54145;SDS011;65909;49.422;7.738;2023-03-01T03:38:39;20.73;;;9.70;;
54145;SDS011;65909;49.422;7.738;2023-03-01T03:41:06;17.50;;;10.20;;
54145;SDS011;65909;49.422;7.738;2023-03-01T03:43:33;19.17;;;10.73;;
54145;SDS011;65909;49.422;7.738;2023-03-01T03:46:00;18.58;;;10.93;;
54145;SDS011;65909;49.422;7.738;2023-03-01T03:48:30;18.23;;;10.05;;
54145;SDS011;65909;49.422;7.738;2023-03-01T03:50:59;19.85;;;11.25;;
54145;SDS011;65909;49.422;7.738;2023-03-01T03:53:26;19.10;;;9.70;;
54145;SDS011;65909;49.422;7.738;2023-03-01T03:55:53;20.10;;;10.45;;
54145;SDS011;65909;49.422;7.738;2023-03-01T03:58:19;21.52;;;11.25;;
54145;SDS011;65909;49.422;7.738;2023-03-01T04:00:46;20.70;;;10.45;;
54145;SDS011;65909;49.422;7.738;2023-03-01T04:03:13;21.30;;;10.63;;
54145;SDS011;65909;49.422;7.738;2023-03-01T04:05:40;20.55;;;10.35;;
54145;SDS011;65909;49.422;7.738;2023-03-01T04:08:06;19.05;;;10.68;;
54145;SDS011;65909;49.422;7.738;2023-03-01T04:10:34;21.92;;;10.77;;
54145;SDS011;65909;49.422;7.738;2023-03-01T04:13:04;19.70;;;10.90;;
54145;SDS011;65909;49.422;7.738;2023-03-01T04:15:31;24.50;;;11.32;;
54145;SDS011;65909;49.422;7.738;2023-03-01T04:17:57;22.70;;;11.63;;
54145;SDS011;65909;49.422;7.738;2023-03-01T04:20:25;19.75;;;10.38;;
54145;SDS011;65909;49.422;7.738;2023-03-01T04:25:23;18.63;;;10.27;;
54145;SDS011;65909;49.422;7.738;2023-03-01T04:27:48;25.33;;;11.10;;
54145;SDS011;65909;49.422;7.738;2023-03-01T04:30:14;21.73;;;11.32;;
54145;SDS011;65909;49.422;7.738;2023-03-01T04:32:39;19.63;;;10.07;;
54145;SDS011;65909;49.422;7.738;2023-03-01T04:35:05;20.10;;;10.20;;
54145;SDS011;65909;49.422;7.738;2023-03-01T04:37:33;19.80;;;10.93;;
54145;SDS011;65909;49.422;7.738;2023-03-01T04:39:59;23.80;;;11.25;;
54145;SDS011;65909;49.422;7.738;2023-03-01T04:42:25;26.15;;;11.52;;
54145;SDS011;65909;49.422;7.738;2023-03-01T04:44:51;23.65;;;11.10;;
54145;SDS011;65909;49.422;7.738;2023-03-01T04:47:17;30.40;;;12.98;;
54145;SDS011;65909;49.422;7.738;2023-03-01T04:49:42;22.38;;;10.50;;
54145;SDS011;65909;49.422;7.738;2023-03-01T04:52:08;17.95;;;10.20;;
54145;SDS011;65909;49.422;7.738;2023-03-01T04:54:34;21.95;;;10.35;;
54145;SDS011;65909;49.422;7.738;2023-03-01T04:57:01;24.55;;;11.70;;
54145;SDS011;65909;49.422;7.738;2023-03-01T04:59:27;21.65;;;9.88;;
54145;SDS011;65909;49.422;7.738;2023-03-01T05:01:54;23.17;;;10.60;;
54145;SDS011;65909;49.422;7.738;2023-03-01T05:04:23;20.95;;;11.80;;
54145;SDS011;65909;49.422;7.738;2023-03-01T05:06:49;21.25;;;11.35;;
54145;SDS011;65909;49.422;7.738;2023-03-01T05:09:15;25.02;;;11.07;;
54145;SDS011;65909;49.422;7.738;2023-03-01T05:11:40;20.48;;;11.57;;
54145;SDS011;65909;49.422;7.738;2023-03-01T05:14:06;17.73;;;10.00;;
54145;SDS011;65909;49.422;7.738;2023-03-01T05:16:33;21.92;;;10.55;;
54145;SDS011;65909;49.422;7.738;2023-03-01T05:19:03;20.23;;;11.65;;
54145;SDS011;65909;49.422;7.738;2023-03-01T05:21:40;19.77;;;10.25;;
54145;SDS011;65909;49.422;7.738;2023-03-01T05:24:26;17.33;;;8.88;;
54145;SDS011;65909;49.422;7.738;2023-03-01T05:26:52;21.35;;;10.77;;
54145;SDS011;65909;49.422;7.738;2023-03-01T05:29:21;19.80;;;10.35;;
54145;SDS011;65909;49.422;7.738;2023-03-01T05:31:50;21.38;;;10.65;;
54145;SDS011;65909;49.422;7.738;2023-03-01T05:34:29;25.48;;;11.65;;
54145;SDS011;65909;49.422;7.738;2023-03-01T05:36:57;20.10;;;10.85;;
54145;SDS011;65909;49.422;7.738;2023-03-01T05:39:23;22.08;;;11.68;;
54145;SDS011;65909;49.422;7.738;2023-03-01T05:41:54;23.58;;;11.10;;
54145;SDS011;65909;49.422;7.738;2023-03-01T05:44:21;22.30;;;11.30;;
54145;SDS011;65909;49.422;7.738;2023-03-01T05:46:47;24.23;;;10.75;;
54145;SDS011;65909;49.422;7.738;2023-03-01T05:49:12;21.27;;;10.50;;
54145;SDS011;65909;49.422;7.738;2023-03-01T05:51:39;19.13;;;9.93;;
54145;SDS011;65909;49.422;7.738;2023-03-01T05:54:05;18.00;;;9.52;;
54145;SDS011;65909;49.422;7.738;2023-03-01T05:56:32;20.75;;;11.32;;
54145;SDS011;65909;49.422;7.738;2023-03-01T05:58:58;18.48;;;10.98;;
54145;SDS011;65909;49.422;7.738;2023-03-01T06:01:23;25.60;;;11.68;;
54145;SDS011;65909;49.422;7.738;2023-03-01T06:03:49;24.73;;;11.45;;
54145;SDS011;65909;49.422;7.738;2023-03-01T06:06:14;18.88;;;10.50;;
54145;SDS011;65909;49.422;7.738;2023-03-01T06:08:39;18.40;;;11.20;;
54145;SDS011;65909;49.422;7.738;2023-03-01T06:11:05;21.85;;;9.75;;
54145;SDS011;65909;49.422;7.738;2023-03-01T06:13:32;24.15;;;11.85;;
54145;SDS011;65909;49.422;7.738;2023-03-01T06:15:57;21.55;;;10.68;;
54145;SDS011;65909;49.422;7.738;2023-03-01T06:18:22;22.95;;;11.52;;
54145;SDS011;65909;49.422;7.738;2023-03-01T06:20:54;19.10;;;9.77;;
54145;SDS011;65909;49.422;7.738;2023-03-01T06:23:20;17.13;;;10.60;;
54145;SDS011;65909;49.422;7.738;2023-03-01T06:25:47;22.45;;;10.75;;
54145;SDS011;65909;49.422;7.738;2023-03-01T06:28:12;22.17;;;10.98;;
54145;SDS011;65909;49.422;7.738;2023-03-01T06:30:37;20.17;;;10.93;;
54145;SDS011;65909;49.422;7.738;2023-03-01T06:33:03;17.60;;;10.40;;
54145;SDS011;65909;49.422;7.738;2023-03-01T06:35:29;19.20;;;11.38;;
54145;SDS011;65909;49.422;7.738;2023-03-01T06:37:55;20.05;;;11.10;;
54145;SDS011;65909;49.422;7.738;2023-03-01T06:40:20;19.33;;;10.88;;
54145;SDS011;65909;49.422;7.738;2023-03-01T06:42:47;21.83;;;11.65;;
54145;SDS011;65909;49.422;7.738;2023-03-01T06:45:14;19.67;;;10.43;;
54145;SDS011;65909;49.422;7.738;2023-03-01T06:47:40;18.98;;;10.10;;
54145;SDS011;65909;49.422;7.738;2023-03-01T06:50:05;19.48;;;10.68;;
54145;SDS011;65909;49.422;7.738;2023-03-01T06:52:31;23.95;;;12.23;;
54145;SDS011;65909;49.422;7.738;2023-03-01T06:54:56;19.92;;;11.07;;
54145;SDS011;65909;49.422;7.738;2023-03-01T06:57:21;19.20;;;9.90;;
54145;SDS011;65909;49.422;7.738;2023-03-01T06:59:47;23.23;;;11.93;;
54145;SDS011;65909;49.422;7.738;2023-03-01T07:02:13;19.50;;;10.13;;
54145;SDS011;65909;49.422;7.738;2023-03-01T07:04:40;20.15;;;10.43;;
54145;SDS011;65909;49.422;7.738;2023-03-01T07:07:06;20.48;;;11.98;;
54145;SDS011;65909;49.422;7.738;2023-03-01T07:09:31;22.33;;;11.02;;
54145;SDS011;65909;49.422;7.738;2023-03-01T07:11:56;16.45;;;9.98;;
54145;SDS011;65909;49.422;7.738;2023-03-01T07:14:22;20.65;;;11.30;;
54145;SDS011;65909;49.422;7.738;2023-03-01T07:16:50;23.92;;;11.30;;
54145;SDS011;65909;49.422;7.738;2023-03-01T07:19:16;19.77;;;10.75;;
54145;SDS011;65909;49.422;7.738;2023-03-01T07:21:41;22.58;;;11.80;;
54145;SDS011;65909;49.422;7.738;2023-03-01T07:24:07;18.98;;;10.55;;
54145;SDS011;65909;49.422;7.738;2023-03-01T07:26:33;20.83;;;11.60;;
54145;SDS011;65909;49.422;7.738;2023-03-01T07:28:59;21.77;;;12.45;;
54145;SDS011;65909;49.422;7.738;2023-03-01T07:31:25;22.83;;;12.55;;
54145;SDS011;65909;49.422;7.738;2023-03-01T07:33:53;21.38;;;11.52;;
54145;SDS011;65909;49.422;7.738;2023-03-01T07:36:18;20.85;;;12.07;;
54145;SDS011;65909;49.422;7.738;2023-03-01T07:38:44;24.52;;;12.02;;
54145;SDS011;65909;49.422;7.738;2023-03-01T07:41:09;20.30;;;10.30;;
54145;SDS011;65909;49.422;7.738;2023-03-01T07:43:34;20.08;;;11.57;;
54145;SDS011;65909;49.422;7.738;2023-03-01T07:46:00;21.98;;;11.07;;
54145;SDS011;65909;49.422;7.738;2023-03-01T07:48:26;23.67;;;11.10;;
54145;SDS011;65909;49.422;7.738;2023-03-01T07:50:53;20.23;;;11.15;;
54145;SDS011;65909;49.422;7.738;2023-03-01T07:53:18;19.25;;;10.65;;
54145;SDS011;65909;49.422;7.738;2023-03-01T07:55:44;20.98;;;11.35;;
54145;SDS011;65909;49.422;7.738;2023-03-01T07:58:09;19.08;;;11.57;;
54145;SDS011;65909;49.422;7.738;2023-03-01T08:00:34;19.55;;;11.15;;
54145;SDS011;65909;49.422;7.738;2023-03-01T08:03:00;20.88;;;11.50;;
54145;SDS011;65909;49.422;7.738;2023-03-01T08:05:26;22.92;;;11.98;;
54145;SDS011;65909;49.422;7.738;2023-03-01T08:07:52;19.35;;;11.27;;
54145;SDS011;65909;49.422;7.738;2023-03-01T08:10:17;18.08;;;11.27;;
54145;SDS011;65909;49.422;7.738;2023-03-01T08:12:43;20.05;;;10.45;;
54145;SDS011;65909;49.422;7.738;2023-03-01T08:15:08;22.05;;;10.88;;
54145;SDS011;65909;49.422;7.738;2023-03-01T08:17:34;16.48;;;11.13;;
54145;SDS011;65909;49.422;7.738;2023-03-01T08:19:59;16.23;;;10.63;;
54145;SDS011;65909;49.422;7.738;2023-03-01T08:22:25;18.90;;;10.80;;
54145;SDS011;65909;49.422;7.738;2023-03-01T08:24:50;17.73;;;11.50;;
54145;SDS011;65909;49.422;7.738;2023-03-01T08:27:16;16.88;;;10.32;;
54145;SDS011;65909;49.422;7.738;2023-03-01T08:29:42;18.90;;;11.48;;
54145;SDS011;65909;49.422;7.738;2023-03-01T08:32:07;16.83;;;11.02;;
54145;SDS011;65909;49.422;7.738;2023-03-01T08:34:32;15.10;;;10.40;;
54145;SDS011;65909;49.422;7.738;2023-03-01T08:37:00;18.33;;;11.18;;
54145;SDS011;65909;49.422;7.738;2023-03-01T08:39:26;18.92;;;10.90;;
54145;SDS011;65909;49.422;7.738;2023-03-01T08:41:51;16.10;;;11.30;;
54145;SDS011;65909;49.422;7.738;2023-03-01T08:44:17;15.90;;;10.93;;
54145;SDS011;65909;49.422;7.738;2023-03-01T08:46:51;17.70;;;11.35;;
54145;SDS011;65909;49.422;7.738;2023-03-01T08:49:18;18.67;;;11.85;;
54145;SDS011;65909;49.422;7.738;2023-03-01T08:51:44;16.33;;;11.68;;
54145;SDS011;65909;49.422;7.738;2023-03-01T08:54:12;16.98;;;11.10;;
54145;SDS011;65909;49.422;7.738;2023-03-01T08:56:40;15.20;;;10.65;;
54145;SDS011;65909;49.422;7.738;2023-03-01T08:59:06;16.42;;;10.68;;
54145;SDS011;65909;49.422;7.738;2023-03-01T09:01:32;19.58;;;13.20;;
54145;SDS011;65909;49.422;7.738;2023-03-01T09:03:58;14.63;;;11.20;;
54145;SDS011;65909;49.422;7.738;2023-03-01T09:06:23;14.95;;;11.30;;
54145;SDS011;65909;49.422;7.738;2023-03-01T09:08:49;16.80;;;11.23;;
54145;SDS011;65909;49.422;7.738;2023-03-01T09:11:16;14.05;;;11.18;;
54145;SDS011;65909;49.422;7.738;2023-03-01T09:13:44;15.82;;;10.98;;
54145;SDS011;65909;49.422;7.738;2023-03-01T09:16:10;16.90;;;11.50;;
54145;SDS011;65909;49.422;7.738;2023-03-01T09:18:37;16.27;;;10.88;;
54145;SDS011;65909;49.422;7.738;2023-03-01T09:21:07;16.33;;;11.45;;
54145;SDS011;65909;49.422;7.738;2023-03-01T09:23:34;15.70;;;11.70;;
54145;SDS011;65909;49.422;7.738;2023-03-01T09:26:05;16.73;;;12.07;;
54145;SDS011;65909;49.422;7.738;2023-03-01T09:28:34;17.80;;;11.45;;
54145;SDS011;65909;49.422;7.738;2023-03-01T09:31:01;17.20;;;12.80;;
54145;SDS011;65909;49.422;7.738;2023-03-01T09:33:28;17.13;;;13.02;;
54145;SDS011;65909;49.422;7.738;2023-03-01T09:35:57;17.20;;;13.30;;
54145;SDS011;65909;49.422;7.738;2023-03-01T09:38:28;17.77;;;13.50;;
54145;SDS011;65909;49.422;7.738;2023-03-01T09:40:54;14.57;;;12.52;;
54145;SDS011;65909;49.422;7.738;2023-03-01T09:43:21;16.98;;;11.55;;
54145;SDS011;65909;49.422;7.738;2023-03-01T09:45:53;15.02;;;11.13;;
54145;SDS011;65909;49.422;7.738;2023-03-01T09:48:22;15.13;;;10.50;;
54145;SDS011;65909;49.422;7.738;2023-03-01T09:50:50;15.02;;;11.18;;
54145;SDS011;65909;49.422;7.738;2023-03-01T09:53:21;14.63;;;10.80;;
54145;SDS011;65909;49.422;7.738;2023-03-01T10:01:33;14.98;;;10.40;;
54145;SDS011;65909;49.422;7.738;2023-03-01T10:07:05;18.20;;;11.77;;
54145;SDS011;65909;49.422;7.738;2023-03-01T10:09:43;14.18;;;10.20;;
54145;SDS011;65909;49.422;7.738;2023-03-01T10:12:11;15.30;;;11.57;;
54145;SDS011;65909;49.422;7.738;2023-03-01T10:17:37;14.73;;;10.85;;
54145;SDS011;65909;49.422;7.738;2023-03-01T10:20:13;15.20;;;11.25;;
54145;SDS011;65909;49.422;7.738;2023-03-01T10:22:41;14.40;;;11.00;;
54145;SDS011;65909;49.422;7.738;2023-03-01T10:25:08;13.98;;;11.27;;
54145;SDS011;65909;49.422;7.738;2023-03-01T10:27:52;14.80;;;10.80;;
54145;SDS011;65909;49.422;7.738;2023-03-01T10:30:38;14.02;;;10.30;;
54145;SDS011;65909;49.422;7.738;2023-03-01T10:33:48;13.65;;;11.25;;
54145;SDS011;65909;49.422;7.738;2023-03-01T10:35:57;13.35;;;10.93;;
54145;SDS011;65909;49.422;7.738;2023-03-01T10:38:22;12.93;;;10.50;;
54145;SDS011;65909;49.422;7.738;2023-03-01T10:40:58;14.35;;;10.75;;
54145;SDS011;65909;49.422;7.738;2023-03-01T10:43:52;15.05;;;10.93;;
54145;SDS011;65909;49.422;7.738;2023-03-01T10:49:06;15.88;;;11.65;;
54145;SDS011;65909;49.422;7.738;2023-03-01T10:51:31;14.45;;;11.30;;
54145;SDS011;65909;49.422;7.738;2023-03-01T10:53:57;13.05;;;10.82;;
54145;SDS011;65909;49.422;7.738;2023-03-01T10:56:22;13.20;;;10.95;;
54145;SDS011;65909;49.422;7.738;2023-03-01T11:01:32;17.73;;;12.77;;
54145;SDS011;65909;49.422;7.738;2023-03-01T11:06:31;12.68;;;11.02;;
54145;SDS011;65909;49.422;7.738;2023-03-01T11:08:57;14.57;;;10.93;;
54145;SDS011;65909;49.422;7.738;2023-03-01T11:11:40;13.80;;;10.63;;
54145;SDS011;65909;49.422;7.738;2023-03-01T11:14:15;14.65;;;10.57;;
54145;SDS011;65909;49.422;7.738;2023-03-01T11:16:47;11.85;;;9.85;;
54145;SDS011;65909;49.422;7.738;2023-03-01T11:19:15;12.15;;;9.90;;
54145;SDS011;65909;49.422;7.738;2023-03-01T11:29:45;12.57;;;9.43;;
54145;SDS011;65909;49.422;7.738;2023-03-01T11:32:16;13.05;;;10.23;;
54145;SDS011;65909;49.422;7.738;2023-03-01T11:40:27;11.52;;;9.45;;
54145;SDS011;65909;49.422;7.738;2023-03-01T11:43:15;10.30;;;9.02;;
54145;SDS011;65909;49.422;7.738;2023-03-01T11:45:45;11.80;;;9.68;;
54145;SDS011;65909;49.422;7.738;2023-03-01T11:50:58;15.02;;;9.68;;
54145;SDS011;65909;49.422;7.738;2023-03-01T11:53:47;13.20;;;9.65;;
54145;SDS011;65909;49.422;7.738;2023-03-01T11:56:28;11.50;;;8.95;;
54145;SDS011;65909;49.422;7.738;2023-03-01T12:01:49;12.77;;;9.38;;
54145;SDS011;65909;49.422;7.738;2023-03-01T12:12:27;10.90;;;8.70;;
54145;SDS011;65909;49.422;7.738;2023-03-01T12:15:17;10.82;;;8.75;;
54145;SDS011;65909;49.422;7.738;2023-03-01T12:17:55;10.43;;;8.25;;
54145;SDS011;65909;49.422;7.738;2023-03-01T12:20:58;12.13;;;9.13;;
54145;SDS011;65909;49.422;7.738;2023-03-01T12:26:10;11.68;;;8.10;;
54145;SDS011;65909;49.422;7.738;2023-03-01T12:31:44;11.75;;;7.82;;
54145;SDS011;65909;49.422;7.738;2023-03-01T12:37:15;9.50;;;7.63;;
54145;SDS011;65909;49.422;7.738;2023-03-01T12:45:35;14.82;;;10.15;;
54145;SDS011;65909;49.422;7.738;2023-03-01T12:51:24;9.40;;;7.70;;
54145;SDS011;65909;49.422;7.738;2023-03-01T12:53:52;18.48;;;12.35;;
54145;SDS011;65909;49.422;7.738;2023-03-01T12:56:23;16.05;;;10.90;;
54145;SDS011;65909;49.422;7.738;2023-03-01T13:02:02;11.52;;;8.75;;
54145;SDS011;65909;49.422;7.738;2023-03-01T13:20:19;12.20;;;8.40;;
54145;SDS011;65909;49.422;7.738;2023-03-01T13:23:00;15.02;;;9.55;;
54145;SDS011;65909;49.422;7.738;2023-03-01T13:25:27;11.77;;;8.02;;
54145;SDS011;65909;49.422;7.738;2023-03-01T13:27:53;12.98;;;8.82;;
54145;SDS011;65909;49.422;7.738;2023-03-01T13:30:56;12.30;;;7.93;;
54145;SDS011;65909;49.422;7.738;2023-03-01T13:35:56;12.00;;;8.93;;
54145;SDS011;65909;49.422;7.738;2023-03-01T13:38:39;16.67;;;8.98;;
54145;SDS011;65909;49.422;7.738;2023-03-01T13:42:25;10.48;;;8.43;;
54145;SDS011;65909;49.422;7.738;2023-03-01T13:46:52;16.35;;;8.10;;
54145;SDS011;65909;49.422;7.738;2023-03-01T13:49:25;13.27;;;9.77;;
54145;SDS011;65909;49.422;7.738;2023-03-01T13:51:58;14.18;;;8.48;;
54145;SDS011;65909;49.422;7.738;2023-03-01T13:54:29;12.02;;;7.80;;
54145;SDS011;65909;49.422;7.738;2023-03-01T13:56:56;18.30;;;8.93;;
54145;SDS011;65909;49.422;7.738;2023-03-01T13:59:24;16.02;;;9.38;;
54145;SDS011;65909;49.422;7.738;2023-03-01T14:01:58;11.50;;;7.78;;
54145;SDS011;65909;49.422;7.738;2023-03-01T14:04:25;13.57;;;8.30;;
54145;SDS011;65909;49.422;7.738;2023-03-01T14:07:09;13.20;;;9.32;;
54145;SDS011;65909;49.422;7.738;2023-03-01T14:09:43;14.88;;;9.38;;
54145;SDS011;65909;49.422;7.738;2023-03-01T14:12:14;17.30;;;8.65;;
54145;SDS011;65909;49.422;7.738;2023-03-01T14:15:02;10.82;;;7.65;;
54145;SDS011;65909;49.422;7.738;2023-03-01T14:20:28;16.30;;;8.13;;
54145;SDS011;65909;49.422;7.738;2023-03-01T14:22:58;15.00;;;8.07;;
54145;SDS011;65909;49.422;7.738;2023-03-01T14:25:27;15.88;;;9.18;;
54145;SDS011;65909;49.422;7.738;2023-03-01T14:27:59;14.57;;;8.60;;
54145;SDS011;65909;49.422;7.738;2023-03-01T14:30:34;12.05;;;8.00;;
54145;SDS011;65909;49.422;7.738;2023-03-01T14:33:05;13.45;;;8.57;;
54145;SDS011;65909;49.422;7.738;2023-03-01T14:35:42;14.23;;;7.97;;
54145;SDS011;65909;49.422;7.738;2023-03-01T14:38:19;14.18;;;8.43;;
54145;SDS011;65909;49.422;7.738;2023-03-01T14:40:46;14.10;;;8.10;;
54145;SDS011;65909;49.422;7.738;2023-03-01T14:43:20;13.02;;;8.40;;
54145;SDS011;65909;49.422;7.738;2023-03-01T14:45:49;14.77;;;9.02;;
54145;SDS011;65909;49.422;7.738;2023-03-01T14:48:18;12.60;;;8.02;;
54145;SDS011;65909;49.422;7.738;2023-03-01T14:50:44;10.48;;;7.65;;
54145;SDS011;65909;49.422;7.738;2023-03-01T14:53:21;14.40;;;8.35;;
54145;SDS011;65909;49.422;7.738;2023-03-01T14:55:53;12.73;;;7.43;;
54145;SDS011;65909;49.422;7.738;2023-03-01T14:58:21;11.20;;;7.20;;
54145;SDS011;65909;49.422;7.738;2023-03-01T15:00:56;14.02;;;7.55;;
54145;SDS011;65909;49.422;7.738;2023-03-01T15:03:33;11.63;;;7.15;;
54145;SDS011;65909;49.422;7.738;2023-03-01T15:06:04;11.13;;;7.38;;
54145;SDS011;65909;49.422;7.738;2023-03-01T15:08:31;11.88;;;7.15;;
54145;SDS011;65909;49.422;7.738;2023-03-01T15:13:29;11.30;;;6.90;;
54145;SDS011;65909;49.422;7.738;2023-03-01T15:16:09;12.15;;;7.28;;
54145;SDS011;65909;49.422;7.738;2023-03-01T15:18:37;14.23;;;7.25;;
54145;SDS011;65909;49.422;7.738;2023-03-01T15:21:09;12.38;;;6.55;;
54145;SDS011;65909;49.422;7.738;2023-03-01T15:23:40;12.63;;;7.72;;
54145;SDS011;65909;49.422;7.738;2023-03-01T15:26:17;13.80;;;7.60;;
54145;SDS011;65909;49.422;7.738;2023-03-01T15:28:52;14.77;;;8.00;;
54145;SDS011;65909;49.422;7.738;2023-03-01T15:31:23;11.77;;;7.05;;
54145;SDS011;65909;49.422;7.738;2023-03-01T15:34:11;14.23;;;7.63;;
54145;SDS011;65909;49.422;7.738;2023-03-01T15:36:48;14.85;;;7.53;;
54145;SDS011;65909;49.422;7.738;2023-03-01T15:39:35;10.82;;;6.97;;
54145;SDS011;65909;49.422;7.738;2023-03-01T15:42:07;12.55;;;8.65;;
54145;SDS011;65909;49.422;7.738;2023-03-01T15:44:36;12.13;;;7.53;;
54145;SDS011;65909;49.422;7.738;2023-03-01T15:47:05;9.30;;;6.72;;
54145;SDS011;65909;49.422;7.738;2023-03-01T15:49:47;13.35;;;7.38;;
54145;SDS011;65909;49.422;7.738;2023-03-01T15:52:34;10.80;;;7.47;;
54145;SDS011;65909;49.422;7.738;2023-03-01T15:55:05;12.77;;;7.47;;
54145;SDS011;65909;49.422;7.738;2023-03-01T15:57:40;10.55;;;6.50;;
54145;SDS011;65909;49.422;7.738;2023-03-01T16:00:05;14.35;;;7.05;;
54145;SDS011;65909;49.422;7.738;2023-03-01T16:02:36;10.45;;;6.78;;
54145;SDS011;65909;49.422;7.738;2023-03-01T16:05:02;15.93;;;7.63;;
54145;SDS011;65909;49.422;7.738;2023-03-01T16:07:40;11.63;;;6.15;;
54145;SDS011;65909;49.422;7.738;2023-03-01T16:10:05;14.20;;;8.48;;
54145;SDS011;65909;49.422;7.738;2023-03-01T16:12:30;15.85;;;7.10;;
54145;SDS011;65909;49.422;7.738;2023-03-01T16:14:56;13.85;;;8.23;;
54145;SDS011;65909;49.422;7.738;2023-03-01T16:17:22;13.20;;;7.85;;
54145;SDS011;65909;49.422;7.738;2023-03-01T16:19:48;12.82;;;7.57;;
54145;SDS011;65909;49.422;7.738;2023-03-01T16:22:13;13.90;;;8.05;;